sensor_id;sensor_type;location;lat;lon;timestamp;P1;durP1;ratioP1;P2;durP2;ratioP2
68523;SDS011;55524;51.380;13.372;2023-04-26T00:01:03;5.32;;;1.83;;
68523;SDS011;55524;51.380;13.372;2023-04-26T00:03:30;2.75;;;1.85;;
68523;SDS011;55524;51.380;13.372;2023-04-26T00:05:56;7.28;;;2.20;;
68523;SDS011;55524;51.380;13.372;2023-04-26T00:08:23;4.18;;;1.90;;
68523;SDS011;55524;51.380;13.372;2023-04-26T00:10:50;3.28;;;1.92;;
68523;SDS011;55524;51.380;13.372;2023-04-26T00:13:16;4.25;;;1.70;;
68523;SDS011;55524;51.380;13.372;2023-04-26T00:15:42;3.95;;;2.10;;
68523;SDS011;55524;51.380;13.372;2023-04-26T00:18:09;3.53;;;1.80;;
68523;SDS011;55524;51.380;13.372;2023-04-26T00:20:36;4.18;;;2.22;;
68523;SDS011;55524;51.380;13.372;2023-04-26T00:23:03;6.22;;;2.55;;
68523;SDS011;55524;51.380;13.372;2023-04-26T00:25:29;5.65;;;1.98;;
68523;SDS011;55524;51.380;13.372;2023-04-26T00:27:55;6.00;;;2.20;;
68523;SDS011;55524;51.380;13.372;2023-04-26T00:30:22;7.57;;;2.63;;
68523;SDS011;55524;51.380;13.372;2023-04-26T00:32:48;5.25;;;2.42;;
68523;SDS011;55524;51.380;13.372;2023-04-26T00:35:14;8.25;;;2.10;;
68523;SDS011;55524;51.380;13.372;2023-04-26T00:37:41;6.70;;;2.50;;
68523;SDS011;55524;51.380;13.372;2023-04-26T00:40:07;7.20;;;2.58;;
68523;SDS011;55524;51.380;13.372;2023-04-26T00:42:34;7.90;;;2.42;;
68523;SDS011;55524;51.380;13.372;2023-04-26T00:45:02;7.75;;;2.25;;
68523;SDS011;55524;51.380;13.372;2023-04-26T00:47:28;5.32;;;2.40;;
68523;SDS011;55524;51.380;13.372;2023-04-26T00:49:55;4.68;;;2.25;;
68523;SDS011;55524;51.380;13.372;2023-04-26T00:52:22;4.20;;;2.40;;
68523;SDS011;55524;51.380;13.372;2023-04-26T00:54:49;9.15;;;2.60;;
68523;SDS011;55524;51.380;13.372;2023-04-26T00:57:16;6.22;;;2.47;;
68523;SDS011;55524;51.380;13.372;2023-04-26T00:59:42;8.23;;;2.38;;
68523;SDS011;55524;51.380;13.372;2023-04-26T01:02:08;4.43;;;2.65;;
68523;SDS011;55524;51.380;13.372;2023-04-26T01:04:35;4.07;;;2.40;;
68523;SDS011;55524;51.380;13.372;2023-04-26T01:07:01;4.90;;;2.35;;
68523;SDS011;55524;51.380;13.372;2023-04-26T01:09:31;3.72;;;2.35;;
68523;SDS011;55524;51.380;13.372;2023-04-26T01:11:58;5.38;;;2.53;;
68523;SDS011;55524;51.380;13.372;2023-04-26T01:14:25;6.40;;;2.72;;
68523;SDS011;55524;51.380;13.372;2023-04-26T01:16:52;6.72;;;2.83;;
68523;SDS011;55524;51.380;13.372;2023-04-26T01:19:20;5.82;;;2.42;;
68523;SDS011;55524;51.380;13.372;2023-04-26T01:21:47;7.70;;;2.45;;
68523;SDS011;55524;51.380;13.372;2023-04-26T01:24:13;6.50;;;2.50;;
68523;SDS011;55524;51.380;13.372;2023-04-26T01:26:40;4.80;;;2.50;;
68523;SDS011;55524;51.380;13.372;2023-04-26T01:29:14;4.90;;;2.40;;
68523;SDS011;55524;51.380;13.372;2023-04-26T01:31:45;2.90;;;2.45;;
68523;SDS011;55524;51.380;13.372;2023-04-26T01:34:12;6.03;;;2.53;;
68523;SDS011;55524;51.380;13.372;2023-04-26T01:36:38;5.85;;;2.70;;
68523;SDS011;55524;51.380;13.372;2023-04-26T01:39:05;6.28;;;2.53;;
68523;SDS011;55524;51.380;13.372;2023-04-26T01:41:33;9.02;;;2.70;;
68523;SDS011;55524;51.380;13.372;2023-04-26T01:43:59;6.57;;;2.47;;
68523;SDS011;55524;51.380;13.372;2023-04-26T01:46:25;4.40;;;2.50;;
68523;SDS011;55524;51.380;13.372;2023-04-26T01:48:52;4.82;;;2.75;;
68523;SDS011;55524;51.380;13.372;2023-04-26T01:51:18;6.57;;;2.50;;
68523;SDS011;55524;51.380;13.372;2023-04-26T01:53:45;5.53;;;2.55;;
68523;SDS011;55524;51.380;13.372;2023-04-26T01:56:12;6.50;;;2.60;;
68523;SDS011;55524;51.380;13.372;2023-04-26T01:58:38;6.78;;;2.40;;
68523;SDS011;55524;51.380;13.372;2023-04-26T02:01:07;2.90;;;2.65;;
68523;SDS011;55524;51.380;13.372;2023-04-26T02:03:35;5.40;;;2.28;;
68523;SDS011;55524;51.380;13.372;2023-04-26T02:06:02;3.22;;;2.28;;
68523;SDS011;55524;51.380;13.372;2023-04-26T02:08:28;3.90;;;2.40;;
68523;SDS011;55524;51.380;13.372;2023-04-26T02:10:55;4.10;;;2.60;;
68523;SDS011;55524;51.380;13.372;2023-04-26T02:13:21;5.15;;;2.83;;
68523;SDS011;55524;51.380;13.372;2023-04-26T02:15:48;4.40;;;2.60;;
68523;SDS011;55524;51.380;13.372;2023-04-26T02:18:15;7.75;;;2.53;;
68523;SDS011;55524;51.380;13.372;2023-04-26T02:20:42;5.28;;;2.53;;
68523;SDS011;55524;51.380;13.372;2023-04-26T02:23:09;7.00;;;2.85;;
68523;SDS011;55524;51.380;13.372;2023-04-26T02:25:36;4.07;;;2.50;;
68523;SDS011;55524;51.380;13.372;2023-04-26T02:28:04;3.35;;;2.33;;
68523;SDS011;55524;51.380;13.372;2023-04-26T02:30:30;6.47;;;2.50;;
68523;SDS011;55524;51.380;13.372;2023-04-26T02:32:56;5.68;;;2.63;;
68523;SDS011;55524;51.380;13.372;2023-04-26T02:35:23;6.05;;;2.65;;
68523;SDS011;55524;51.380;13.372;2023-04-26T02:37:49;4.93;;;2.47;;
68523;SDS011;55524;51.380;13.372;2023-04-26T02:40:19;5.32;;;2.80;;
68523;SDS011;55524;51.380;13.372;2023-04-26T02:42:46;7.10;;;2.53;;
68523;SDS011;55524;51.380;13.372;2023-04-26T02:45:12;4.53;;;2.20;;
68523;SDS011;55524;51.380;13.372;2023-04-26T02:47:39;5.00;;;2.53;;
68523;SDS011;55524;51.380;13.372;2023-04-26T02:50:05;7.13;;;2.47;;
68523;SDS011;55524;51.380;13.372;2023-04-26T02:52:33;5.07;;;2.70;;
68523;SDS011;55524;51.380;13.372;2023-04-26T02:55:01;6.50;;;2.63;;
68523;SDS011;55524;51.380;13.372;2023-04-26T02:57:28;6.38;;;2.38;;
68523;SDS011;55524;51.380;13.372;2023-04-26T03:00:01;4.22;;;2.50;;
68523;SDS011;55524;51.380;13.372;2023-04-26T03:03:06;6.00;;;2.30;;
68523;SDS011;55524;51.380;13.372;2023-04-26T03:05:32;7.72;;;2.85;;
68523;SDS011;55524;51.380;13.372;2023-04-26T03:07:58;5.15;;;2.80;;
68523;SDS011;55524;51.380;13.372;2023-04-26T03:10:25;8.15;;;2.78;;
68523;SDS011;55524;51.380;13.372;2023-04-26T03:12:51;7.60;;;3.10;;
68523;SDS011;55524;51.380;13.372;2023-04-26T03:15:17;8.15;;;2.50;;
68523;SDS011;55524;51.380;13.372;2023-04-26T03:17:43;6.13;;;2.40;;
68523;SDS011;55524;51.380;13.372;2023-04-26T03:20:10;7.47;;;2.72;;
68523;SDS011;55524;51.380;13.372;2023-04-26T03:22:36;5.13;;;2.47;;
68523;SDS011;55524;51.380;13.372;2023-04-26T03:25:03;5.07;;;2.50;;
68523;SDS011;55524;51.380;13.372;2023-04-26T03:27:29;7.32;;;2.70;;
68523;SDS011;55524;51.380;13.372;2023-04-26T03:29:56;7.82;;;2.65;;
68523;SDS011;55524;51.380;13.372;2023-04-26T03:32:22;4.75;;;2.40;;
68523;SDS011;55524;51.380;13.372;2023-04-26T03:34:49;4.93;;;2.67;;
68523;SDS011;55524;51.380;13.372;2023-04-26T03:37:15;3.83;;;2.22;;
68523;SDS011;55524;51.380;13.372;2023-04-26T03:39:41;3.33;;;2.35;;
68523;SDS011;55524;51.380;13.372;2023-04-26T03:42:08;7.30;;;2.75;;
68523;SDS011;55524;51.380;13.372;2023-04-26T03:44:34;7.10;;;2.65;;
68523;SDS011;55524;51.380;13.372;2023-04-26T03:47:00;6.20;;;2.30;;
68523;SDS011;55524;51.380;13.372;2023-04-26T03:49:28;6.15;;;2.78;;
68523;SDS011;55524;51.380;13.372;2023-04-26T03:51:54;7.10;;;2.70;;
68523;SDS011;55524;51.380;13.372;2023-04-26T03:54:21;4.18;;;2.40;;
68523;SDS011;55524;51.380;13.372;2023-04-26T03:56:47;5.47;;;2.30;;
68523;SDS011;55524;51.380;13.372;2023-04-26T03:59:13;4.45;;;2.33;;
68523;SDS011;55524;51.380;13.372;2023-04-26T04:01:40;8.32;;;2.42;;
68523;SDS011;55524;51.380;13.372;2023-04-26T04:04:06;9.80;;;2.63;;
68523;SDS011;55524;51.380;13.372;2023-04-26T04:06:33;4.43;;;2.20;;
68523;SDS011;55524;51.380;13.372;2023-04-26T04:09:00;10.68;;;2.30;;
68523;SDS011;55524;51.380;13.372;2023-04-26T04:11:26;7.25;;;2.20;;
68523;SDS011;55524;51.380;13.372;2023-04-26T04:13:52;6.28;;;2.53;;
68523;SDS011;55524;51.380;13.372;2023-04-26T04:16:19;10.32;;;2.45;;
68523;SDS011;55524;51.380;13.372;2023-04-26T04:18:45;5.28;;;2.70;;
68523;SDS011;55524;51.380;13.372;2023-04-26T04:21:11;4.28;;;2.35;;
68523;SDS011;55524;51.380;13.372;2023-04-26T04:23:38;4.22;;;2.55;;
68523;SDS011;55524;51.380;13.372;2023-04-26T04:26:04;7.57;;;2.40;;
68523;SDS011;55524;51.380;13.372;2023-04-26T04:28:31;6.78;;;2.33;;
68523;SDS011;55524;51.380;13.372;2023-04-26T04:30:58;10.38;;;2.88;;
68523;SDS011;55524;51.380;13.372;2023-04-26T04:33:25;7.57;;;2.40;;
68523;SDS011;55524;51.380;13.372;2023-04-26T04:35:53;3.47;;;2.33;;
68523;SDS011;55524;51.380;13.372;2023-04-26T04:38:19;8.60;;;2.28;;
68523;SDS011;55524;51.380;13.372;2023-04-26T04:40:49;5.90;;;2.08;;
68523;SDS011;55524;51.380;13.372;2023-04-26T04:43:15;4.60;;;2.42;;
68523;SDS011;55524;51.380;13.372;2023-04-26T04:45:42;7.10;;;2.60;;
68523;SDS011;55524;51.380;13.372;2023-04-26T04:48:08;5.63;;;2.30;;
68523;SDS011;55524;51.380;13.372;2023-04-26T04:50:36;5.60;;;2.00;;
68523;SDS011;55524;51.380;13.372;2023-04-26T04:53:03;8.13;;;2.15;;
68523;SDS011;55524;51.380;13.372;2023-04-26T04:55:29;8.38;;;2.45;;
68523;SDS011;55524;51.380;13.372;2023-04-26T04:57:56;8.52;;;2.58;;
68523;SDS011;55524;51.380;13.372;2023-04-26T05:00:22;5.30;;;2.30;;
68523;SDS011;55524;51.380;13.372;2023-04-26T05:02:48;7.00;;;2.05;;
68523;SDS011;55524;51.380;13.372;2023-04-26T05:05:15;7.03;;;2.38;;
68523;SDS011;55524;51.380;13.372;2023-04-26T05:07:41;3.00;;;2.10;;
68523;SDS011;55524;51.380;13.372;2023-04-26T05:10:07;10.82;;;3.00;;
68523;SDS011;55524;51.380;13.372;2023-04-26T05:12:34;10.68;;;2.65;;
68523;SDS011;55524;51.380;13.372;2023-04-26T05:15:01;10.25;;;2.20;;
68523;SDS011;55524;51.380;13.372;2023-04-26T05:17:28;5.55;;;2.05;;
68523;SDS011;55524;51.380;13.372;2023-04-26T05:19:56;9.05;;;2.53;;
68523;SDS011;55524;51.380;13.372;2023-04-26T05:22:22;8.93;;;2.58;;
68523;SDS011;55524;51.380;13.372;2023-04-26T05:24:49;4.97;;;2.15;;
68523;SDS011;55524;51.380;13.372;2023-04-26T05:27:15;5.50;;;2.28;;
68523;SDS011;55524;51.380;13.372;2023-04-26T05:29:41;3.67;;;2.10;;
68523;SDS011;55524;51.380;13.372;2023-04-26T05:32:08;6.15;;;2.13;;
68523;SDS011;55524;51.380;13.372;2023-04-26T05:34:34;5.35;;;2.20;;
68523;SDS011;55524;51.380;13.372;2023-04-26T05:37:01;7.97;;;2.35;;
68523;SDS011;55524;51.380;13.372;2023-04-26T05:39:27;5.50;;;2.38;;
68523;SDS011;55524;51.380;13.372;2023-04-26T05:41:54;7.57;;;2.10;;
68523;SDS011;55524;51.380;13.372;2023-04-26T05:44:20;13.95;;;2.38;;
68523;SDS011;55524;51.380;13.372;2023-04-26T05:46:47;6.32;;;2.40;;
68523;SDS011;55524;51.380;13.372;2023-04-26T05:49:13;7.32;;;2.00;;
68523;SDS011;55524;51.380;13.372;2023-04-26T05:51:40;5.70;;;2.25;;
68523;SDS011;55524;51.380;13.372;2023-04-26T05:54:06;8.00;;;1.85;;
68523;SDS011;55524;51.380;13.372;2023-04-26T05:56:32;8.18;;;1.95;;
68523;SDS011;55524;51.380;13.372;2023-04-26T05:58:59;7.22;;;2.00;;
68523;SDS011;55524;51.380;13.372;2023-04-26T06:01:25;9.75;;;2.03;;
68523;SDS011;55524;51.380;13.372;2023-04-26T06:03:51;13.00;;;1.92;;
68523;SDS011;55524;51.380;13.372;2023-04-26T06:06:18;9.73;;;1.90;;
68523;SDS011;55524;51.380;13.372;2023-04-26T06:08:44;13.98;;;2.10;;
68523;SDS011;55524;51.380;13.372;2023-04-26T06:11:10;9.50;;;1.75;;
68523;SDS011;55524;51.380;13.372;2023-04-26T06:13:36;8.32;;;2.00;;
68523;SDS011;55524;51.380;13.372;2023-04-26T06:16:03;6.40;;;2.00;;
68523;SDS011;55524;51.380;13.372;2023-04-26T06:18:29;13.90;;;1.60;;
68523;SDS011;55524;51.380;13.372;2023-04-26T06:20:56;7.32;;;1.92;;
68523;SDS011;55524;51.380;13.372;2023-04-26T06:23:22;11.70;;;1.80;;
68523;SDS011;55524;51.380;13.372;2023-04-26T06:25:48;9.52;;;1.75;;
68523;SDS011;55524;51.380;13.372;2023-04-26T06:28:15;9.18;;;1.98;;
68523;SDS011;55524;51.380;13.372;2023-04-26T06:30:41;7.07;;;1.52;;
68523;SDS011;55524;51.380;13.372;2023-04-26T06:33:09;10.77;;;2.00;;
68523;SDS011;55524;51.380;13.372;2023-04-26T06:35:38;6.57;;;1.50;;
68523;SDS011;55524;51.380;13.372;2023-04-26T06:38:05;9.10;;;1.60;;
68523;SDS011;55524;51.380;13.372;2023-04-26T06:40:32;7.20;;;1.70;;
68523;SDS011;55524;51.380;13.372;2023-04-26T06:43:00;9.65;;;1.75;;
68523;SDS011;55524;51.380;13.372;2023-04-26T06:45:27;10.73;;;1.73;;
68523;SDS011;55524;51.380;13.372;2023-04-26T06:47:53;11.63;;;1.80;;
68523;SDS011;55524;51.380;13.372;2023-04-26T06:50:21;12.60;;;1.77;;
68523;SDS011;55524;51.380;13.372;2023-04-26T06:52:47;4.30;;;1.50;;
68523;SDS011;55524;51.380;13.372;2023-04-26T06:55:13;10.32;;;1.58;;
68523;SDS011;55524;51.380;13.372;2023-04-26T06:57:40;16.25;;;2.00;;
68523;SDS011;55524;51.380;13.372;2023-04-26T07:00:06;9.18;;;1.60;;
68523;SDS011;55524;51.380;13.372;2023-04-26T07:02:33;5.82;;;1.50;;
68523;SDS011;55524;51.380;13.372;2023-04-26T07:05:00;10.50;;;2.00;;
68523;SDS011;55524;51.380;13.372;2023-04-26T07:07:26;6.93;;;1.48;;
68523;SDS011;55524;51.380;13.372;2023-04-26T07:09:52;14.75;;;1.50;;
68523;SDS011;55524;51.380;13.372;2023-04-26T07:12:19;14.40;;;2.03;;
68523;SDS011;55524;51.380;13.372;2023-04-26T07:14:45;11.05;;;1.58;;
68523;SDS011;55524;51.380;13.372;2023-04-26T07:17:11;5.70;;;1.42;;
68523;SDS011;55524;51.380;13.372;2023-04-26T07:19:37;13.57;;;1.80;;
68523;SDS011;55524;51.380;13.372;2023-04-26T07:22:04;9.35;;;1.77;;
68523;SDS011;55524;51.380;13.372;2023-04-26T07:24:30;7.63;;;1.67;;
68523;SDS011;55524;51.380;13.372;2023-04-26T07:26:56;7.47;;;1.50;;
68523;SDS011;55524;51.380;13.372;2023-04-26T07:29:23;8.00;;;2.42;;
68523;SDS011;55524;51.380;13.372;2023-04-26T07:31:49;8.63;;;1.38;;
68523;SDS011;55524;51.380;13.372;2023-04-26T07:34:15;21.23;;;2.25;;
68523;SDS011;55524;51.380;13.372;2023-04-26T07:36:42;4.53;;;1.30;;
68523;SDS011;55524;51.380;13.372;2023-04-26T07:39:08;14.07;;;1.73;;
68523;SDS011;55524;51.380;13.372;2023-04-26T07:41:35;6.95;;;1.20;;
68523;SDS011;55524;51.380;13.372;2023-04-26T07:44:02;5.78;;;1.25;;
68523;SDS011;55524;51.380;13.372;2023-04-26T07:46:28;7.43;;;1.48;;
68523;SDS011;55524;51.380;13.372;2023-04-26T07:48:54;5.82;;;1.25;;
68523;SDS011;55524;51.380;13.372;2023-04-26T07:51:20;6.18;;;1.35;;
68523;SDS011;55524;51.380;13.372;2023-04-26T07:53:47;4.35;;;1.00;;
68523;SDS011;55524;51.380;13.372;2023-04-26T07:56:13;9.52;;;1.35;;
68523;SDS011;55524;51.380;13.372;2023-04-26T07:58:39;5.80;;;1.27;;
68523;SDS011;55524;51.380;13.372;2023-04-26T08:01:06;6.72;;;1.42;;
68523;SDS011;55524;51.380;13.372;2023-04-26T08:03:32;5.25;;;1.15;;
68523;SDS011;55524;51.380;13.372;2023-04-26T08:05:59;4.50;;;1.15;;
68523;SDS011;55524;51.380;13.372;2023-04-26T08:08:25;10.40;;;1.83;;
68523;SDS011;55524;51.380;13.372;2023-04-26T08:10:52;6.97;;;1.20;;
68523;SDS011;55524;51.380;13.372;2023-04-26T08:13:22;8.32;;;1.40;;
68523;SDS011;55524;51.380;13.372;2023-04-26T08:15:48;6.80;;;1.40;;
68523;SDS011;55524;51.380;13.372;2023-04-26T08:18:14;6.40;;;1.30;;
68523;SDS011;55524;51.380;13.372;2023-04-26T08:20:41;13.88;;;1.60;;
68523;SDS011;55524;51.380;13.372;2023-04-26T08:23:07;8.85;;;1.30;;
68523;SDS011;55524;51.380;13.372;2023-04-26T08:25:34;2.80;;;1.27;;
68523;SDS011;55524;51.380;13.372;2023-04-26T08:28:00;3.83;;;1.40;;
68523;SDS011;55524;51.380;13.372;2023-04-26T08:30:27;3.38;;;1.20;;
68523;SDS011;55524;51.380;13.372;2023-04-26T08:32:53;3.92;;;1.30;;
68523;SDS011;55524;51.380;13.372;2023-04-26T08:35:20;10.45;;;1.60;;
68523;SDS011;55524;51.380;13.372;2023-04-26T08:37:47;5.05;;;1.45;;
68523;SDS011;55524;51.380;13.372;2023-04-26T08:40:13;8.45;;;1.30;;
68523;SDS011;55524;51.380;13.372;2023-04-26T08:42:46;9.82;;;1.38;;
68523;SDS011;55524;51.380;13.372;2023-04-26T08:45:13;4.93;;;1.38;;
68523;SDS011;55524;51.380;13.372;2023-04-26T08:47:43;5.63;;;1.45;;
68523;SDS011;55524;51.380;13.372;2023-04-26T08:50:30;16.50;;;1.65;;
68523;SDS011;55524;51.380;13.372;2023-04-26T08:52:58;4.10;;;1.20;;
68523;SDS011;55524;51.380;13.372;2023-04-26T08:55:24;6.88;;;1.30;;
68523;SDS011;55524;51.380;13.372;2023-04-26T08:57:52;2.90;;;1.20;;
68523;SDS011;55524;51.380;13.372;2023-04-26T09:00:19;4.47;;;1.25;;
68523;SDS011;55524;51.380;13.372;2023-04-26T09:02:46;4.97;;;1.20;;
68523;SDS011;55524;51.380;13.372;2023-04-26T09:05:13;8.68;;;1.55;;
68523;SDS011;55524;51.380;13.372;2023-04-26T09:07:41;3.97;;;1.20;;
68523;SDS011;55524;51.380;13.372;2023-04-26T09:12:38;6.15;;;1.52;;
68523;SDS011;55524;51.380;13.372;2023-04-26T09:15:05;10.48;;;1.63;;
68523;SDS011;55524;51.380;13.372;2023-04-26T09:17:36;6.30;;;1.40;;
68523;SDS011;55524;51.380;13.372;2023-04-26T09:20:18;5.43;;;1.20;;
68523;SDS011;55524;51.380;13.372;2023-04-26T09:25:15;4.05;;;1.38;;
68523;SDS011;55524;51.380;13.372;2023-04-26T09:27:43;9.10;;;1.52;;
68523;SDS011;55524;51.380;13.372;2023-04-26T09:30:16;3.40;;;1.15;;
68523;SDS011;55524;51.380;13.372;2023-04-26T09:32:45;4.43;;;1.20;;
68523;SDS011;55524;51.380;13.372;2023-04-26T09:38:09;8.75;;;1.77;;
68523;SDS011;55524;51.380;13.372;2023-04-26T09:43:14;5.78;;;1.30;;
68523;SDS011;55524;51.380;13.372;2023-04-26T09:45:52;2.33;;;1.27;;
68523;SDS011;55524;51.380;13.372;2023-04-26T09:48:26;2.95;;;1.00;;
68523;SDS011;55524;51.380;13.372;2023-04-26T09:50:58;4.20;;;1.30;;
68523;SDS011;55524;51.380;13.372;2023-04-26T09:53:35;6.80;;;1.30;;
68523;SDS011;55524;51.380;13.372;2023-04-26T09:58:57;5.32;;;1.33;;
68523;SDS011;55524;51.380;13.372;2023-04-26T10:01:29;6.00;;;1.20;;
68523;SDS011;55524;51.380;13.372;2023-04-26T10:03:59;8.18;;;1.60;;
68523;SDS011;55524;51.380;13.372;2023-04-26T10:06:26;8.85;;;1.23;;
68523;SDS011;55524;51.380;13.372;2023-04-26T10:08:53;6.40;;;1.60;;
68523;SDS011;55524;51.380;13.372;2023-04-26T10:11:20;4.20;;;1.50;;
68523;SDS011;55524;51.380;13.372;2023-04-26T10:13:48;10.57;;;1.40;;
68523;SDS011;55524;51.380;13.372;2023-04-26T10:16:15;4.45;;;1.60;;
68523;SDS011;55524;51.380;13.372;2023-04-26T10:18:42;2.15;;;1.20;;
68523;SDS011;55524;51.380;13.372;2023-04-26T10:21:15;7.07;;;1.40;;
68523;SDS011;55524;51.380;13.372;2023-04-26T10:23:46;2.10;;;1.20;;
68523;SDS011;55524;51.380;13.372;2023-04-26T10:29:15;3.50;;;1.38;;
68523;SDS011;55524;51.380;13.372;2023-04-26T10:34:30;3.40;;;1.50;;
68523;SDS011;55524;51.380;13.372;2023-04-26T10:37:07;4.60;;;1.40;;
68523;SDS011;55524;51.380;13.372;2023-04-26T10:39:34;5.00;;;1.30;;
68523;SDS011;55524;51.380;13.372;2023-04-26T10:44:59;8.02;;;1.48;;
68523;SDS011;55524;51.380;13.372;2023-04-26T10:47:46;2.78;;;1.33;;
68523;SDS011;55524;51.380;13.372;2023-04-26T10:50:12;7.50;;;1.67;;
68523;SDS011;55524;51.380;13.372;2023-04-26T10:55:38;4.45;;;1.45;;
68523;SDS011;55524;51.380;13.372;2023-04-26T10:58:25;6.72;;;1.60;;
68523;SDS011;55524;51.380;13.372;2023-04-26T11:01:05;4.95;;;1.85;;
68523;SDS011;55524;51.380;13.372;2023-04-26T11:03:32;8.90;;;1.85;;
68523;SDS011;55524;51.380;13.372;2023-04-26T11:05:58;11.68;;;2.00;;
68523;SDS011;55524;51.380;13.372;2023-04-26T11:08:29;3.67;;;1.90;;
68523;SDS011;55524;51.380;13.372;2023-04-26T11:13:31;9.68;;;2.50;;
68523;SDS011;55524;51.380;13.372;2023-04-26T11:16:03;4.35;;;1.77;;
68523;SDS011;55524;51.380;13.372;2023-04-26T11:18:31;4.50;;;1.65;;
68523;SDS011;55524;51.380;13.372;2023-04-26T11:20:58;8.02;;;1.77;;
68523;SDS011;55524;51.380;13.372;2023-04-26T11:23:25;12.48;;;2.13;;
68523;SDS011;55524;51.380;13.372;2023-04-26T11:25:55;6.15;;;1.65;;
68523;SDS011;55524;51.380;13.372;2023-04-26T11:28:28;6.28;;;1.67;;
68523;SDS011;55524;51.380;13.372;2023-04-26T11:30:56;7.13;;;1.70;;
68523;SDS011;55524;51.380;13.372;2023-04-26T11:33:23;3.85;;;1.70;;
68523;SDS011;55524;51.380;13.372;2023-04-26T11:35:50;7.43;;;1.70;;
68523;SDS011;55524;51.380;13.372;2023-04-26T11:38:22;5.30;;;1.90;;
68523;SDS011;55524;51.380;13.372;2023-04-26T11:40:59;4.53;;;2.10;;
68523;SDS011;55524;51.380;13.372;2023-04-26T11:43:34;3.25;;;1.70;;
68523;SDS011;55524;51.380;13.372;2023-04-26T11:46:01;11.23;;;1.95;;
68523;SDS011;55524;51.380;13.372;2023-04-26T11:48:28;6.78;;;1.85;;
68523;SDS011;55524;51.380;13.372;2023-04-26T11:50:56;5.80;;;1.60;;
68523;SDS011;55524;51.380;13.372;2023-04-26T11:53:24;7.32;;;1.90;;
68523;SDS011;55524;51.380;13.372;2023-04-26T11:56:15;4.32;;;1.58;;
68523;SDS011;55524;51.380;13.372;2023-04-26T11:58:46;8.55;;;2.00;;
68523;SDS011;55524;51.380;13.372;2023-04-26T12:01:21;5.32;;;1.65;;
68523;SDS011;55524;51.380;13.372;2023-04-26T12:03:58;3.33;;;1.42;;
68523;SDS011;55524;51.380;13.372;2023-04-26T12:06:25;5.20;;;2.33;;
68523;SDS011;55524;51.380;13.372;2023-04-26T12:08:56;5.55;;;1.70;;
68523;SDS011;55524;51.380;13.372;2023-04-26T12:11:25;3.00;;;1.90;;
68523;SDS011;55524;51.380;13.372;2023-04-26T12:13:51;6.60;;;1.90;;
68523;SDS011;55524;51.380;13.372;2023-04-26T12:16:18;3.42;;;1.92;;
68523;SDS011;55524;51.380;13.372;2023-04-26T12:18:49;3.30;;;1.58;;
68523;SDS011;55524;51.380;13.372;2023-04-26T12:21:16;8.38;;;2.30;;
68523;SDS011;55524;51.380;13.372;2023-04-26T12:23:43;7.05;;;2.25;;
68523;SDS011;55524;51.380;13.372;2023-04-26T12:26:12;17.88;;;2.58;;
68523;SDS011;55524;51.380;13.372;2023-04-26T12:28:39;6.18;;;1.92;;
68523;SDS011;55524;51.380;13.372;2023-04-26T12:31:05;6.32;;;1.98;;
68523;SDS011;55524;51.380;13.372;2023-04-26T12:33:32;7.07;;;1.80;;
68523;SDS011;55524;51.380;13.372;2023-04-26T12:36:08;4.22;;;1.67;;
68523;SDS011;55524;51.380;13.372;2023-04-26T12:38:36;7.57;;;1.63;;
68523;SDS011;55524;51.380;13.372;2023-04-26T12:41:03;6.60;;;1.70;;
68523;SDS011;55524;51.380;13.372;2023-04-26T12:43:29;3.20;;;1.67;;
68523;SDS011;55524;51.380;13.372;2023-04-26T12:45:56;5.30;;;1.90;;
68523;SDS011;55524;51.380;13.372;2023-04-26T12:48:22;5.03;;;1.77;;
68523;SDS011;55524;51.380;13.372;2023-04-26T12:50:48;3.85;;;1.63;;
68523;SDS011;55524;51.380;13.372;2023-04-26T12:53:15;3.45;;;1.55;;
68523;SDS011;55524;51.380;13.372;2023-04-26T12:55:42;4.70;;;1.52;;
68523;SDS011;55524;51.380;13.372;2023-04-26T12:58:09;7.57;;;1.92;;
68523;SDS011;55524;51.380;13.372;2023-04-26T13:00:35;2.50;;;1.50;;
68523;SDS011;55524;51.380;13.372;2023-04-26T13:03:01;4.35;;;1.67;;
68523;SDS011;55524;51.380;13.372;2023-04-26T13:05:28;2.15;;;1.52;;
68523;SDS011;55524;51.380;13.372;2023-04-26T13:07:56;4.43;;;1.73;;
68523;SDS011;55524;51.380;13.372;2023-04-26T13:10:24;4.82;;;1.80;;
68523;SDS011;55524;51.380;13.372;2023-04-26T13:12:50;2.50;;;1.50;;
68523;SDS011;55524;51.380;13.372;2023-04-26T13:15:17;3.92;;;2.08;;
68523;SDS011;55524;51.380;13.372;2023-04-26T13:17:45;10.30;;;2.00;;
68523;SDS011;55524;51.380;13.372;2023-04-26T13:20:11;4.07;;;1.95;;
68523;SDS011;55524;51.380;13.372;2023-04-26T13:22:38;3.40;;;1.65;;
68523;SDS011;55524;51.380;13.372;2023-04-26T13:25:06;2.30;;;1.50;;
68523;SDS011;55524;51.380;13.372;2023-04-26T13:27:34;3.75;;;1.60;;
68523;SDS011;55524;51.380;13.372;2023-04-26T13:30:01;3.17;;;1.25;;
68523;SDS011;55524;51.380;13.372;2023-04-26T13:32:27;2.17;;;1.63;;
68523;SDS011;55524;51.380;13.372;2023-04-26T13:34:54;2.08;;;1.50;;
68523;SDS011;55524;51.380;13.372;2023-04-26T13:37:20;4.63;;;1.40;;
68523;SDS011;55524;51.380;13.372;2023-04-26T13:39:47;5.18;;;1.83;;
68523;SDS011;55524;51.380;13.372;2023-04-26T13:42:14;3.58;;;1.60;;
68523;SDS011;55524;51.380;13.372;2023-04-26T13:44:41;6.55;;;1.48;;
68523;SDS011;55524;51.380;13.372;2023-04-26T13:47:07;2.28;;;1.40;;
68523;SDS011;55524;51.380;13.372;2023-04-26T13:49:34;5.60;;;1.30;;
68523;SDS011;55524;51.380;13.372;2023-04-26T13:52:00;3.58;;;1.40;;
68523;SDS011;55524;51.380;13.372;2023-04-26T13:54:27;1.75;;;1.40;;
68523;SDS011;55524;51.380;13.372;2023-04-26T13:56:53;3.95;;;1.38;;
68523;SDS011;55524;51.380;13.372;2023-04-26T13:59:20;4.43;;;1.60;;
68523;SDS011;55524;51.380;13.372;2023-04-26T14:01:46;2.35;;;1.30;;
68523;SDS011;55524;51.380;13.372;2023-04-26T14:04:13;6.00;;;2.00;;
68523;SDS011;55524;51.380;13.372;2023-04-26T14:06:39;4.03;;;1.65;;
68523;SDS011;55524;51.380;13.372;2023-04-26T14:09:06;5.70;;;1.70;;
68523;SDS011;55524;51.380;13.372;2023-04-26T14:11:33;4.72;;;1.73;;
68523;SDS011;55524;51.380;13.372;2023-04-26T14:13:59;13.80;;;3.25;;
68523;SDS011;55524;51.380;13.372;2023-04-26T14:16:26;4.70;;;1.70;;
68523;SDS011;55524;51.380;13.372;2023-04-26T14:18:52;2.42;;;1.90;;
68523;SDS011;55524;51.380;13.372;2023-04-26T14:21:19;7.40;;;1.60;;
68523;SDS011;55524;51.380;13.372;2023-04-26T14:23:45;4.05;;;1.70;;
68523;SDS011;55524;51.380;13.372;2023-04-26T14:26:11;2.83;;;1.60;;
68523;SDS011;55524;51.380;13.372;2023-04-26T14:28:38;4.90;;;2.35;;
68523;SDS011;55524;51.380;13.372;2023-04-26T14:31:05;5.30;;;2.30;;
68523;SDS011;55524;51.380;13.372;2023-04-26T14:33:32;2.33;;;1.60;;
68523;SDS011;55524;51.380;13.372;2023-04-26T14:35:58;6.82;;;1.88;;
68523;SDS011;55524;51.380;13.372;2023-04-26T14:38:25;3.85;;;1.60;;
68523;SDS011;55524;51.380;13.372;2023-04-26T14:40:51;7.82;;;1.80;;
68523;SDS011;55524;51.380;13.372;2023-04-26T14:43:17;2.45;;;1.50;;
68523;SDS011;55524;51.380;13.372;2023-04-26T14:45:44;4.25;;;1.65;;
68523;SDS011;55524;51.380;13.372;2023-04-26T14:48:10;9.15;;;2.13;;
68523;SDS011;55524;51.380;13.372;2023-04-26T14:50:37;3.50;;;1.60;;
68523;SDS011;55524;51.380;13.372;2023-04-26T14:53:03;5.32;;;1.90;;
68523;SDS011;55524;51.380;13.372;2023-04-26T14:55:29;4.45;;;1.80;;
68523;SDS011;55524;51.380;13.372;2023-04-26T14:57:56;5.65;;;1.50;;
68523;SDS011;55524;51.380;13.372;2023-04-26T15:00:22;7.75;;;1.60;;
68523;SDS011;55524;51.380;13.372;2023-04-26T15:02:49;6.90;;;1.77;;